sensor_id;sensor_type;location;lat;lon;timestamp;temperature;humidity
22130;DHT22;11231;50.746;4.272;2024-03-23T00:55:55;10.40;99.90
22130;DHT22;11231;50.746;4.272;2024-03-23T00:58:21;10.40;99.90
22130;DHT22;11231;50.746;4.272;2024-03-23T01:00:47;10.40;99.90
22130;DHT22;11231;50.746;4.272;2024-03-23T01:03:13;10.40;99.90
22130;DHT22;11231;50.746;4.272;2024-03-23T01:05:38;10.40;99.90
22130;DHT22;11231;50.746;4.272;2024-03-23T01:08:04;10.40;99.90
22130;DHT22;11231;50.746;4.272;2024-03-23T01:10:30;10.40;99.90
22130;DHT22;11231;50.746;4.272;2024-03-23T01:12:56;10.30;99.90
22130;DHT22;11231;50.746;4.272;2024-03-23T01:15:22;10.20;99.90
22130;DHT22;11231;50.746;4.272;2024-03-23T01:17:47;10.10;99.90
22130;DHT22;11231;50.746;4.272;2024-03-23T01:20:13;10.00;99.90
22130;DHT22;11231;50.746;4.272;2024-03-23T01:22:39;9.80;99.90
22130;DHT22;11231;50.746;4.272;2024-03-23T01:25:05;9.70;99.90
22130;DHT22;11231;50.746;4.272;2024-03-23T01:27:31;9.60;99.90
22130;DHT22;11231;50.746;4.272;2024-03-23T01:29:57;9.70;99.90
22130;DHT22;11231;50.746;4.272;2024-03-23T01:32:22;9.70;99.90
22130;DHT22;11231;50.746;4.272;2024-03-23T01:34:48;9.50;99.90
22130;DHT22;11231;50.746;4.272;2024-03-23T01:37:14;9.50;99.90
22130;DHT22;11231;50.746;4.272;2024-03-23T01:39:40;9.40;99.90
22130;DHT22;11231;50.746;4.272;2024-03-23T01:42:06;9.30;99.90
22130;DHT22;11231;50.746;4.272;2024-03-23T01:44:32;9.40;99.90
22130;DHT22;11231;50.746;4.272;2024-03-23T01:46:58;9.50;99.90
22130;DHT22;11231;50.746;4.272;2024-03-23T01:49:24;9.60;99.90
22130;DHT22;11231;50.746;4.272;2024-03-23T01:51:50;9.80;99.90
22130;DHT22;11231;50.746;4.272;2024-03-23T01:54:16;9.90;99.90
22130;DHT22;11231;50.746;4.272;2024-03-23T01:56:42;10.00;99.90
22130;DHT22;11231;50.746;4.272;2024-03-23T01:59:07;10.10;99.90
22130;DHT22;11231;50.746;4.272;2024-03-23T02:01:35;10.00;99.90
22130;DHT22;11231;50.746;4.272;2024-03-23T02:04:04;10.00;99.90
22130;DHT22;11231;50.746;4.272;2024-03-23T02:06:30;10.00;99.90
22130;DHT22;11231;50.746;4.272;2024-03-23T02:08:56;9.90;99.90
22130;DHT22;11231;50.746;4.272;2024-03-23T02:11:22;10.00;99.90
22130;DHT22;11231;50.746;4.272;2024-03-23T02:13:48;10.00;99.90
22130;DHT22;11231;50.746;4.272;2024-03-23T02:16:13;10.00;99.90
22130;DHT22;11231;50.746;4.272;2024-03-23T02:18:39;10.10;99.90
22130;DHT22;11231;50.746;4.272;2024-03-23T02:21:05;10.10;99.90
22130;DHT22;11231;50.746;4.272;2024-03-23T02:23:31;10.10;99.90
22130;DHT22;11231;50.746;4.272;2024-03-23T02:25:57;10.00;99.90
22130;DHT22;11231;50.746;4.272;2024-03-23T02:28:22;9.90;99.90
22130;DHT22;11231;50.746;4.272;2024-03-23T02:30:51;9.90;99.90
22130;DHT22;11231;50.746;4.272;2024-03-23T02:33:17;9.90;99.90
22130;DHT22;11231;50.746;4.272;2024-03-23T02:35:44;10.00;99.90
22130;DHT22;11231;50.746;4.272;2024-03-23T02:38:10;10.00;99.90
22130;DHT22;11231;50.746;4.272;2024-03-23T02:40:36;10.10;99.90
22130;DHT22;11231;50.746;4.272;2024-03-23T02:43:03;10.10;99.90
22130;DHT22;11231;50.746;4.272;2024-03-23T02:45:29;10.10;99.90
22130;DHT22;11231;50.746;4.272;2024-03-23T02:47:55;10.00;99.90
22130;DHT22;11231;50.746;4.272;2024-03-23T02:50:20;9.90;99.90
22130;DHT22;11231;50.746;4.272;2024-03-23T02:52:47;10.00;99.90
22130;DHT22;11231;50.746;4.272;2024-03-23T02:55:13;9.90;99.90
22130;DHT22;11231;50.746;4.272;2024-03-23T02:57:39;9.90;99.90
22130;DHT22;11231;50.746;4.272;2024-03-23T03:00:05;9.80;99.90
22130;DHT22;11231;50.746;4.272;2024-03-23T03:02:32;9.80;99.90
22130;DHT22;11231;50.746;4.272;2024-03-23T03:04:58;9.80;99.90
22130;DHT22;11231;50.746;4.272;2024-03-23T03:07:24;9.80;99.90
22130;DHT22;11231;50.746;4.272;2024-03-23T03:09:49;9.80;99.90
22130;DHT22;11231;50.746;4.272;2024-03-23T03:12:15;9.80;99.90
22130;DHT22;11231;50.746;4.272;2024-03-23T03:14:41;9.80;99.90
22130;DHT22;11231;50.746;4.272;2024-03-23T03:17:08;9.90;99.90
22130;DHT22;11231;50.746;4.272;2024-03-23T03:19:34;9.90;99.90
22130;DHT22;11231;50.746;4.272;2024-03-23T03:22:00;9.90;99.90
22130;DHT22;11231;50.746;4.272;2024-03-23T03:24:26;9.90;99.90
22130;DHT22;11231;50.746;4.272;2024-03-23T03:26:51;9.80;99.90
22130;DHT22;11231;50.746;4.272;2024-03-23T03:29:17;9.90;99.90
22130;DHT22;11231;50.746;4.272;2024-03-23T03:31:43;9.80;99.90
22130;DHT22;11231;50.746;4.272;2024-03-23T03:34:09;9.70;99.90
22130;DHT22;11231;50.746;4.272;2024-03-23T03:36:35;9.80;99.90
22130;DHT22;11231;50.746;4.272;2024-03-23T03:39:01;9.90;99.90
22130;DHT22;11231;50.746;4.272;2024-03-23T03:41:29;9.90;99.90
22130;DHT22;11231;50.746;4.272;2024-03-23T03:43:54;9.80;99.90
22130;DHT22;11231;50.746;4.272;2024-03-23T03:46:21;9.70;99.90
22130;DHT22;11231;50.746;4.272;2024-03-23T03:48:46;9.70;99.90
22130;DHT22;11231;50.746;4.272;2024-03-23T03:51:15;9.60;99.90
22130;DHT22;11231;50.746;4.272;2024-03-23T03:53:41;9.60;99.90
22130;DHT22;11231;50.746;4.272;2024-03-23T03:56:07;9.50;99.90
22130;DHT22;11231;50.746;4.272;2024-03-23T03:58:33;9.50;99.90
22130;DHT22;11231;50.746;4.272;2024-03-23T04:00:58;9.50;99.90
22130;DHT22;11231;50.746;4.272;2024-03-23T04:03:24;9.50;99.90
22130;DHT22;11231;50.746;4.272;2024-03-23T04:05:53;9.50;99.90
22130;DHT22;11231;50.746;4.272;2024-03-23T04:08:20;9.60;99.90
22130;DHT22;11231;50.746;4.272;2024-03-23T04:10:46;9.60;99.90
22130;DHT22;11231;50.746;4.272;2024-03-23T04:13:14;9.60;99.90
22130;DHT22;11231;50.746;4.272;2024-03-23T04:15:40;9.60;99.90
22130;DHT22;11231;50.746;4.272;2024-03-23T04:18:06;9.50;99.90
22130;DHT22;11231;50.746;4.272;2024-03-23T04:20:32;9.30;99.90
22130;DHT22;11231;50.746;4.272;2024-03-23T04:22:59;9.30;99.90
22130;DHT22;11231;50.746;4.272;2024-03-23T04:25:25;9.30;99.90
22130;DHT22;11231;50.746;4.272;2024-03-23T04:27:50;9.30;99.90
22130;DHT22;11231;50.746;4.272;2024-03-23T04:30:17;9.30;99.90
22130;DHT22;11231;50.746;4.272;2024-03-23T04:32:43;9.20;99.90
22130;DHT22;11231;50.746;4.272;2024-03-23T04:35:09;9.10;99.90
22130;DHT22;11231;50.746;4.272;2024-03-23T04:37:38;9.10;99.90
22130;DHT22;11231;50.746;4.272;2024-03-23T04:40:07;9.10;99.90
22130;DHT22;11231;50.746;4.272;2024-03-23T04:42:33;9.20;99.90
22130;DHT22;11231;50.746;4.272;2024-03-23T04:45:00;9.20;99.90
22130;DHT22;11231;50.746;4.272;2024-03-23T04:47:26;9.10;99.90
22130;DHT22;11231;50.746;4.272;2024-03-23T04:49:52;9.10;99.90
22130;DHT22;11231;50.746;4.272;2024-03-23T04:52:17;9.00;99.90
22130;DHT22;11231;50.746;4.272;2024-03-23T04:54:43;9.10;99.90
22130;DHT22;11231;50.746;4.272;2024-03-23T04:57:10;9.10;99.90
22130;DHT22;11231;50.746;4.272;2024-03-23T04:59:36;9.20;99.90
22130;DHT22;11231;50.746;4.272;2024-03-23T05:02:02;9.10;99.90
22130;DHT22;11231;50.746;4.272;2024-03-23T05:04:28;9.10;99.90
22130;DHT22;11231;50.746;4.272;2024-03-23T05:06:54;9.10;99.90
22130;DHT22;11231;50.746;4.272;2024-03-23T05:09:20;9.10;99.90
22130;DHT22;11231;50.746;4.272;2024-03-23T05:11:46;9.00;99.90
22130;DHT22;11231;50.746;4.272;2024-03-23T05:14:13;8.90;99.90
22130;DHT22;11231;50.746;4.272;2024-03-23T05:16:39;8.90;99.90
22130;DHT22;11231;50.746;4.272;2024-03-23T05:19:05;8.90;99.90
22130;DHT22;11231;50.746;4.272;2024-03-23T05:21:31;8.90;99.90
22130;DHT22;11231;50.746;4.272;2024-03-23T05:23:56;9.00;99.90
22130;DHT22;11231;50.746;4.272;2024-03-23T05:26:22;9.00;99.90
22130;DHT22;11231;50.746;4.272;2024-03-23T05:28:48;9.00;99.90
22130;DHT22;11231;50.746;4.272;2024-03-23T05:31:27;9.00;99.90
22130;DHT22;11231;50.746;4.272;2024-03-23T05:33:53;9.00;99.90
22130;DHT22;11231;50.746;4.272;2024-03-23T05:36:20;9.00;99.90
22130;DHT22;11231;50.746;4.272;2024-03-23T05:38:46;8.90;99.90
22130;DHT22;11231;50.746;4.272;2024-03-23T05:41:12;8.90;99.90
22130;DHT22;11231;50.746;4.272;2024-03-23T05:43:38;8.90;99.90
22130;DHT22;11231;50.746;4.272;2024-03-23T05:46:04;8.90;99.90
22130;DHT22;11231;50.746;4.272;2024-03-23T05:48:38;9.00;99.90
22130;DHT22;11231;50.746;4.272;2024-03-23T05:51:04;8.90;99.90
22130;DHT22;11231;50.746;4.272;2024-03-23T05:53:30;8.80;99.90
22130;DHT22;11231;50.746;4.272;2024-03-23T05:56:03;8.70;99.90
22130;DHT22;11231;50.746;4.272;2024-03-23T05:58:32;8.70;99.90
22130;DHT22;11231;50.746;4.272;2024-03-23T06:01:00;8.60;99.90
22130;DHT22;11231;50.746;4.272;2024-03-23T06:03:27;8.70;99.90
22130;DHT22;11231;50.746;4.272;2024-03-23T06:05:52;8.80;99.90
22130;DHT22;11231;50.746;4.272;2024-03-23T06:08:19;8.70;99.90
22130;DHT22;11231;50.746;4.272;2024-03-23T06:10:46;8.70;99.90
22130;DHT22;11231;50.746;4.272;2024-03-23T06:13:12;8.80;99.90
22130;DHT22;11231;50.746;4.272;2024-03-23T06:15:38;8.90;99.90
22130;DHT22;11231;50.746;4.272;2024-03-23T06:18:04;9.10;99.90
22130;DHT22;11231;50.746;4.272;2024-03-23T06:20:30;9.20;99.90
22130;DHT22;11231;50.746;4.272;2024-03-23T06:22:56;9.30;99.90
22130;DHT22;11231;50.746;4.272;2024-03-23T06:25:22;9.30;99.90
22130;DHT22;11231;50.746;4.272;2024-03-23T06:27:48;9.30;99.90
22130;DHT22;11231;50.746;4.272;2024-03-23T06:30:13;9.30;99.90
22130;DHT22;11231;50.746;4.272;2024-03-23T06:32:39;9.30;99.90
22130;DHT22;11231;50.746;4.272;2024-03-23T06:35:05;9.30;99.90
22130;DHT22;11231;50.746;4.272;2024-03-23T06:37:35;9.10;99.90
22130;DHT22;11231;50.746;4.272;2024-03-23T06:40:01;9.10;99.90
22130;DHT22;11231;50.746;4.272;2024-03-23T06:42:27;9.10;99.90
22130;DHT22;11231;50.746;4.272;2024-03-23T06:44:52;8.80;99.90
22130;DHT22;11231;50.746;4.272;2024-03-23T06:47:18;8.90;99.90
22130;DHT22;11231;50.746;4.272;2024-03-23T06:49:44;8.80;99.90
22130;DHT22;11231;50.746;4.272;2024-03-23T06:52:09;8.90;99.90
22130;DHT22;11231;50.746;4.272;2024-03-23T06:54:35;9.10;99.90
22130;DHT22;11231;50.746;4.272;2024-03-23T06:57:01;9.10;99.90
22130;DHT22;11231;50.746;4.272;2024-03-23T06:59:27;9.20;99.90
22130;DHT22;11231;50.746;4.272;2024-03-23T07:01:53;9.10;99.90
22130;DHT22;11231;50.746;4.272;2024-03-23T07:04:18;9.20;99.90
22130;DHT22;11231;50.746;4.272;2024-03-23T07:06:45;9.30;99.90
22130;DHT22;11231;50.746;4.272;2024-03-23T07:09:11;9.20;99.90
22130;DHT22;11231;50.746;4.272;2024-03-23T07:11:37;9.30;99.90
22130;DHT22;11231;50.746;4.272;2024-03-23T07:14:02;9.30;99.90
22130;DHT22;11231;50.746;4.272;2024-03-23T07:16:29;9.30;99.90
22130;DHT22;11231;50.746;4.272;2024-03-23T07:18:55;9.20;99.90
22130;DHT22;11231;50.746;4.272;2024-03-23T07:21:21;9.30;99.90
22130;DHT22;11231;50.746;4.272;2024-03-23T07:23:47;9.30;99.90
22130;DHT22;11231;50.746;4.272;2024-03-23T07:26:13;9.40;99.90
22130;DHT22;11231;50.746;4.272;2024-03-23T07:28:39;9.40;99.90
22130;DHT22;11231;50.746;4.272;2024-03-23T07:31:13;9.50;99.90
22130;DHT22;11231;50.746;4.272;2024-03-23T07:33:47;9.90;99.90
22130;DHT22;11231;50.746;4.272;2024-03-23T07:36:13;10.30;99.90
22130;DHT22;11231;50.746;4.272;2024-03-23T07:38:42;10.40;99.90
22130;DHT22;11231;50.746;4.272;2024-03-23T07:41:10;10.90;99.90
22130;DHT22;11231;50.746;4.272;2024-03-23T07:43:38;11.60;99.90
22130;DHT22;11231;50.746;4.272;2024-03-23T07:46:06;11.80;99.90
22130;DHT22;11231;50.746;4.272;2024-03-23T07:48:32;11.70;99.90
22130;DHT22;11231;50.746;4.272;2024-03-23T07:51:07;11.80;99.90
22130;DHT22;11231;50.746;4.272;2024-03-23T07:53:35;12.50;99.90
22130;DHT22;11231;50.746;4.272;2024-03-23T07:56:07;13.30;99.90
22130;DHT22;11231;50.746;4.272;2024-03-23T07:58:33;13.50;99.90
22130;DHT22;11231;50.746;4.272;2024-03-23T08:01:10;13.20;99.90
22130;DHT22;11231;50.746;4.272;2024-03-23T08:03:41;14.50;99.90
22130;DHT22;11231;50.746;4.272;2024-03-23T08:08:34;14.70;99.90
22130;DHT22;11231;50.746;4.272;2024-03-23T08:11:00;14.10;99.90
22130;DHT22;11231;50.746;4.272;2024-03-23T08:13:26;14.40;99.90
22130;DHT22;11231;50.746;4.272;2024-03-23T08:15:59;16.10;99.90
22130;DHT22;11231;50.746;4.272;2024-03-23T08:18:26;14.90;99.90
22130;DHT22;11231;50.746;4.272;2024-03-23T08:20:58;13.90;99.90
22130;DHT22;11231;50.746;4.272;2024-03-23T08:23:25;13.40;99.90
22130;DHT22;11231;50.746;4.272;2024-03-23T08:25:52;13.20;99.90
22130;DHT22;11231;50.746;4.272;2024-03-23T08:28:17;14.30;99.90
22130;DHT22;11231;50.746;4.272;2024-03-23T08:30:43;14.20;99.90
22130;DHT22;11231;50.746;4.272;2024-03-23T08:33:09;13.70;99.90
22130;DHT22;11231;50.746;4.272;2024-03-23T08:35:35;13.60;99.90
22130;DHT22;11231;50.746;4.272;2024-03-23T08:38:00;14.50;99.90
22130;DHT22;11231;50.746;4.272;2024-03-23T08:40:26;14.70;99.90
22130;DHT22;11231;50.746;4.272;2024-03-23T08:42:52;14.40;99.90
22130;DHT22;11231;50.746;4.272;2024-03-23T08:45:18;14.80;99.90
22130;DHT22;11231;50.746;4.272;2024-03-23T08:47:44;15.00;99.90
22130;DHT22;11231;50.746;4.272;2024-03-23T08:50:09;14.40;99.90
22130;DHT22;11231;50.746;4.272;2024-03-23T08:52:35;14.10;99.90
22130;DHT22;11231;50.746;4.272;2024-03-23T08:55:01;14.20;99.90
22130;DHT22;11231;50.746;4.272;2024-03-23T08:57:27;13.70;99.90
22130;DHT22;11231;50.746;4.272;2024-03-23T08:59:52;14.00;99.90
22130;DHT22;11231;50.746;4.272;2024-03-23T09:02:18;15.30;99.90
22130;DHT22;11231;50.746;4.272;2024-03-23T09:04:44;14.50;99.90
22130;DHT22;11231;50.746;4.272;2024-03-23T09:07:11;14.70;99.90
22130;DHT22;11231;50.746;4.272;2024-03-23T09:09:39;16.00;99.90
22130;DHT22;11231;50.746;4.272;2024-03-23T09:12:06;15.90;99.90
22130;DHT22;11231;50.746;4.272;2024-03-23T09:14:33;15.20;99.90
22130;DHT22;11231;50.746;4.272;2024-03-23T09:16:59;14.40;99.90
22130;DHT22;11231;50.746;4.272;2024-03-23T09:19:28;14.20;99.90
22130;DHT22;11231;50.746;4.272;2024-03-23T09:21:54;13.80;99.90
22130;DHT22;11231;50.746;4.272;2024-03-23T09:24:19;13.50;99.90
22130;DHT22;11231;50.746;4.272;2024-03-23T09:26:45;13.30;99.90
22130;DHT22;11231;50.746;4.272;2024-03-23T09:29:11;13.40;99.90
22130;DHT22;11231;50.746;4.272;2024-03-23T09:31:38;13.10;99.90
22130;DHT22;11231;50.746;4.272;2024-03-23T09:34:04;13.20;99.90
22130;DHT22;11231;50.746;4.272;2024-03-23T09:36:29;13.30;99.90
22130;DHT22;11231;50.746;4.272;2024-03-23T09:38:55;13.40;99.90
22130;DHT22;11231;50.746;4.272;2024-03-23T09:41:21;12.70;99.90
22130;DHT22;11231;50.746;4.272;2024-03-23T09:43:47;12.60;99.90
22130;DHT22;11231;50.746;4.272;2024-03-23T09:46:14;12.40;99.90
22130;DHT22;11231;50.746;4.272;2024-03-23T09:48:41;12.20;99.90
22130;DHT22;11231;50.746;4.272;2024-03-23T09:51:09;12.20;99.90
22130;DHT22;11231;50.746;4.272;2024-03-23T09:53:35;11.70;99.90
22130;DHT22;11231;50.746;4.272;2024-03-23T09:56:01;11.60;99.90
22130;DHT22;11231;50.746;4.272;2024-03-23T09:58:26;11.90;99.90
22130;DHT22;11231;50.746;4.272;2024-03-23T10:00:52;13.00;99.90
22130;DHT22;11231;50.746;4.272;2024-03-23T10:03:18;13.80;99.90
22130;DHT22;11231;50.746;4.272;2024-03-23T10:05:44;14.70;99.90
22130;DHT22;11231;50.746;4.272;2024-03-23T10:10:39;18.50;99.90
22130;DHT22;11231;50.746;4.272;2024-03-23T10:13:05;19.80;99.90
22130;DHT22;11231;50.746;4.272;2024-03-23T10:15:35;21.30;99.90
22130;DHT22;11231;50.746;4.272;2024-03-23T10:18:18;20.20;96.10
22130;DHT22;11231;50.746;4.272;2024-03-23T10:20:50;18.90;97.10
22130;DHT22;11231;50.746;4.272;2024-03-23T10:23:16;17.90;99.00
22130;DHT22;11231;50.746;4.272;2024-03-23T10:25:43;16.40;99.90
22130;DHT22;11231;50.746;4.272;2024-03-23T10:28:08;15.30;99.90
22130;DHT22;11231;50.746;4.272;2024-03-23T10:30:35;13.90;99.90
22130;DHT22;11231;50.746;4.272;2024-03-23T10:33:11;13.60;99.90
22130;DHT22;11231;50.746;4.272;2024-03-23T10:35:37;14.00;99.90
22130;DHT22;11231;50.746;4.272;2024-03-23T10:38:05;15.30;99.90
22130;DHT22;11231;50.746;4.272;2024-03-23T10:40:34;15.70;99.90
22130;DHT22;11231;50.746;4.272;2024-03-23T10:43:00;15.60;99.90
22130;DHT22;11231;50.746;4.272;2024-03-23T10:45:26;17.00;99.90
22130;DHT22;11231;50.746;4.272;2024-03-23T10:47:53;16.80;99.90
22130;DHT22;11231;50.746;4.272;2024-03-23T10:50:19;17.10;99.90
22130;DHT22;11231;50.746;4.272;2024-03-23T10:52:48;17.80;99.90
22130;DHT22;11231;50.746;4.272;2024-03-23T10:55:17;17.90;99.90
22130;DHT22;11231;50.746;4.272;2024-03-23T10:57:54;17.70;99.90
22130;DHT22;11231;50.746;4.272;2024-03-23T11:00:21;18.30;99.10
22130;DHT22;11231;50.746;4.272;2024-03-23T11:02:50;19.00;99.80
22130;DHT22;11231;50.746;4.272;2024-03-23T11:05:47;20.70;98.20
22130;DHT22;11231;50.746;4.272;2024-03-23T11:08:30;21.50;92.30
22130;DHT22;11231;50.746;4.272;2024-03-23T11:11:15;22.20;90.30
22130;DHT22;11231;50.746;4.272;2024-03-23T11:13:42;19.80;88.30
22130;DHT22;11231;50.746;4.272;2024-03-23T11:16:15;17.70;91.70
22130;DHT22;11231;50.746;4.272;2024-03-23T11:18:41;16.50;93.70
22130;DHT22;11231;50.746;4.272;2024-03-23T11:21:08;17.00;96.60
22130;DHT22;11231;50.746;4.272;2024-03-23T11:23:34;17.60;95.90
22130;DHT22;11231;50.746;4.272;2024-03-23T11:25:59;19.00;95.50
22130;DHT22;11231;50.746;4.272;2024-03-23T11:28:25;20.20;94.10
22130;DHT22;11231;50.746;4.272;2024-03-23T11:30:51;18.80;92.00
22130;DHT22;11231;50.746;4.272;2024-03-23T11:33:17;17.80;91.90
22130;DHT22;11231;50.746;4.272;2024-03-23T11:35:43;17.10;92.90
22130;DHT22;11231;50.746;4.272;2024-03-23T11:38:18;16.70;94.00
22130;DHT22;11231;50.746;4.272;2024-03-23T11:40:50;16.40;93.90
22130;DHT22;11231;50.746;4.272;2024-03-23T11:43:17;16.10;96.50
22130;DHT22;11231;50.746;4.272;2024-03-23T11:45:45;15.70;96.10
22130;DHT22;11231;50.746;4.272;2024-03-23T11:48:15;15.20;98.00
22130;DHT22;11231;50.746;4.272;2024-03-23T11:50:44;15.50;98.70
22130;DHT22;11231;50.746;4.272;2024-03-23T11:53:16;15.60;99.10
22130;DHT22;11231;50.746;4.272;2024-03-23T11:55:47;15.60;97.90
22130;DHT22;11231;50.746;4.272;2024-03-23T11:58:13;14.90;98.30
22130;DHT22;11231;50.746;4.272;2024-03-23T12:00:40;14.70;99.60
22130;DHT22;11231;50.746;4.272;2024-03-23T12:03:06;14.20;99.90
22130;DHT22;11231;50.746;4.272;2024-03-23T12:05:33;13.90;99.90
22130;DHT22;11231;50.746;4.272;2024-03-23T12:08:19;13.70;99.90
22130;DHT22;11231;50.746;4.272;2024-03-23T12:10:54;14.50;99.90
22130;DHT22;11231;50.746;4.272;2024-03-23T12:13:29;15.10;99.90
22130;DHT22;11231;50.746;4.272;2024-03-23T12:15:56;16.70;99.90
22130;DHT22;11231;50.746;4.272;2024-03-23T12:18:34;17.30;99.50
22130;DHT22;11231;50.746;4.272;2024-03-23T12:21:00;18.90;98.00
22130;DHT22;11231;50.746;4.272;2024-03-23T12:23:26;18.50;95.80
22130;DHT22;11231;50.746;4.272;2024-03-23T12:25:51;17.80;95.80
22130;DHT22;11231;50.746;4.272;2024-03-23T12:28:17;18.20;98.90
22130;DHT22;11231;50.746;4.272;2024-03-23T12:30:43;18.70;97.80
22130;DHT22;11231;50.746;4.272;2024-03-23T12:33:08;19.20;96.80
22130;DHT22;11231;50.746;4.272;2024-03-23T12:35:34;19.10;96.10
22130;DHT22;11231;50.746;4.272;2024-03-23T12:38:00;18.60;95.90
22130;DHT22;11231;50.746;4.272;2024-03-23T12:40:26;17.90;97.30
22130;DHT22;11231;50.746;4.272;2024-03-23T12:42:54;17.20;97.80
22130;DHT22;11231;50.746;4.272;2024-03-23T12:45:19;16.90;99.70
22130;DHT22;11231;50.746;4.272;2024-03-23T12:47:45;16.10;99.90
22130;DHT22;11231;50.746;4.272;2024-03-23T12:50:11;15.30;99.90
22130;DHT22;11231;50.746;4.272;2024-03-23T12:52:37;14.90;99.90
22130;DHT22;11231;50.746;4.272;2024-03-23T12:55:03;14.20;99.90
22130;DHT22;11231;50.746;4.272;2024-03-23T12:57:31;13.70;99.90
22130;DHT22;11231;50.746;4.272;2024-03-23T12:59:59;13.50;99.90
22130;DHT22;11231;50.746;4.272;2024-03-23T13:02:25;13.50;99.90
22130;DHT22;11231;50.746;4.272;2024-03-23T13:04:52;13.50;99.90
22130;DHT22;11231;50.746;4.272;2024-03-23T13:07:19;13.20;99.90
22130;DHT22;11231;50.746;4.272;2024-03-23T13:09:45;13.20;99.90
22130;DHT22;11231;50.746;4.272;2024-03-23T13:12:11;13.00;99.90
22130;DHT22;11231;50.746;4.272;2024-03-23T13:14:38;13.10;99.90
22130;DHT22;11231;50.746;4.272;2024-03-23T13:17:04;13.10;99.90
22130;DHT22;11231;50.746;4.272;2024-03-23T13:19:31;13.00;99.90
22130;DHT22;11231;50.746;4.272;2024-03-23T13:21:57;12.90;99.90
22130;DHT22;11231;50.746;4.272;2024-03-23T13:24:30;12.70;99.90
22130;DHT22;11231;50.746;4.272;2024-03-23T13:26:56;12.50;99.90
22130;DHT22;11231;50.746;4.272;2024-03-23T13:29:23;12.40;99.90
22130;DHT22;11231;50.746;4.272;2024-03-23T13:31:50;12.40;99.90
22130;DHT22;11231;50.746;4.272;2024-03-23T13:34:16;12.40;99.90
22130;DHT22;11231;50.746;4.272;2024-03-23T13:36:43;12.30;99.90
22130;DHT22;11231;50.746;4.272;2024-03-23T13:39:09;12.30;99.90
22130;DHT22;11231;50.746;4.272;2024-03-23T13:41:42;12.20;99.90
22130;DHT22;11231;50.746;4.272;2024-03-23T13:44:08;12.10;99.90
22130;DHT22;11231;50.746;4.272;2024-03-23T13:46:38;11.80;99.90
22130;DHT22;11231;50.746;4.272;2024-03-23T13:49:05;11.70;99.90
22130;DHT22;11231;50.746;4.272;2024-03-23T13:51:32;11.60;99.90
22130;DHT22;11231;50.746;4.272;2024-03-23T13:53:58;11.50;99.90
22130;DHT22;11231;50.746;4.272;2024-03-23T13:56:30;11.50;99.90
22130;DHT22;11231;50.746;4.272;2024-03-23T13:58:56;11.40;99.90
22130;DHT22;11231;50.746;4.272;2024-03-23T14:01:23;11.30;99.90
22130;DHT22;11231;50.746;4.272;2024-03-23T14:03:50;11.30;99.90
22130;DHT22;11231;50.746;4.272;2024-03-23T14:06:15;11.40;99.90
22130;DHT22;11231;50.746;4.272;2024-03-23T14:08:41;11.50;99.90
22130;DHT22;11231;50.746;4.272;2024-03-23T14:11:09;11.30;99.90
22130;DHT22;11231;50.746;4.272;2024-03-23T14:13:35;11.20;99.90
22130;DHT22;11231;50.746;4.272;2024-03-23T14:16:01;11.30;99.90
22130;DHT22;11231;50.746;4.272;2024-03-23T14:18:27;11.40;99.90
22130;DHT22;11231;50.746;4.272;2024-03-23T14:20:57;11.40;99.90
22130;DHT22;11231;50.746;4.272;2024-03-23T14:23:27;11.40;99.90
22130;DHT22;11231;50.746;4.272;2024-03-23T14:25:56;11.30;99.90
22130;DHT22;11231;50.746;4.272;2024-03-23T14:28:22;11.30;99.90
22130;DHT22;11231;50.746;4.272;2024-03-23T14:30:54;11.30;99.90
22130;DHT22;11231;50.746;4.272;2024-03-23T14:33:20;11.30;99.90
22130;DHT22;11231;50.746;4.272;2024-03-23T14:35:56;11.40;99.90
22130;DHT22;11231;50.746;4.272;2024-03-23T14:38:23;11.30;99.90
22130;DHT22;11231;50.746;4.272;2024-03-23T14:40:48;11.00;99.90
22130;DHT22;11231;50.746;4.272;2024-03-23T14:43:14;11.00;99.90
22130;DHT22;11231;50.746;4.272;2024-03-23T14:46:09;11.30;99.90
22130;DHT22;11231;50.746;4.272;2024-03-23T14:48:35;11.40;99.90
22130;DHT22;11231;50.746;4.272;2024-03-23T14:51:02;11.50;99.90
22130;DHT22;11231;50.746;4.272;2024-03-23T14:53:32;11.50;99.90
22130;DHT22;11231;50.746;4.272;2024-03-23T14:55:58;11.50;99.90
22130;DHT22;11231;50.746;4.272;2024-03-23T14:58:25;11.20;99.90
22130;DHT22;11231;50.746;4.272;2024-03-23T15:00:51;11.30;99.90
22130;DHT22;11231;50.746;4.272;2024-03-23T15:03:18;11.40;99.90
22130;DHT22;11231;50.746;4.272;2024-03-23T15:06:02;11.40;99.90
22130;DHT22;11231;50.746;4.272;2024-03-23T15:08:28;11.60;99.90
22130;DHT22;11231;50.746;4.272;2024-03-23T15:10:54;11.70;99.90
22130;DHT22;11231;50.746;4.272;2024-03-23T15:13:20;11.90;99.90
22130;DHT22;11231;50.746;4.272;2024-03-23T15:15:49;11.60;99.90
22130;DHT22;11231;50.746;4.272;2024-03-23T15:18:15;11.70;99.90
22130;DHT22;11231;50.746;4.272;2024-03-23T15:20:42;11.60;99.90
22130;DHT22;11231;50.746;4.272;2024-03-23T15:23:16;11.60;99.90
22130;DHT22;11231;50.746;4.272;2024-03-23T15:25:42;11.70;99.90
22130;DHT22;11231;50.746;4.272;2024-03-23T15:28:08;11.90;99.90
22130;DHT22;11231;50.746;4.272;2024-03-23T15:30:33;12.10;99.90
22130;DHT22;11231;50.746;4.272;2024-03-23T15:32:59;12.20;99.90
22130;DHT22;11231;50.746;4.272;2024-03-23T15:35:25;12.20;99.90
22130;DHT22;11231;50.746;4.272;2024-03-23T15:37:51;12.20;99.90
22130;DHT22;11231;50.746;4.272;2024-03-23T15:40:16;12.30;99.90
22130;DHT22;11231;50.746;4.272;2024-03-23T15:42:43;12.40;99.90
22130;DHT22;11231;50.746;4.272;2024-03-23T15:45:09;12.50;99.90
22130;DHT22;11231;50.746;4.272;2024-03-23T15:47:35;12.60;99.90
22130;DHT22;11231;50.746;4.272;2024-03-23T15:50:01;12.60;99.90
22130;DHT22;11231;50.746;4.272;2024-03-23T15:52:28;12.70;99.90
22130;DHT22;11231;50.746;4.272;2024-03-23T15:54:54;12.80;99.90
22130;DHT22;11231;50.746;4.272;2024-03-23T15:57:23;13.00;99.90
22130;DHT22;11231;50.746;4.272;2024-03-23T15:59:50;12.90;99.90
22130;DHT22;11231;50.746;4.272;2024-03-23T16:02:15;12.90;99.90
22130;DHT22;11231;50.746;4.272;2024-03-23T16:04:41;12.70;99.90
22130;DHT22;11231;50.746;4.272;2024-03-23T16:07:07;12.50;99.90
22130;DHT22;11231;50.746;4.272;2024-03-23T16:09:33;12.40;99.90
22130;DHT22;11231;50.746;4.272;2024-03-23T16:11:59;12.20;99.90
22130;DHT22;11231;50.746;4.272;2024-03-23T16:14:25;12.10;99.90
22130;DHT22;11231;50.746;4.272;2024-03-23T16:16:50;12.20;99.90
22130;DHT22;11231;50.746;4.272;2024-03-23T16:19:16;12.20;99.90
22130;DHT22;11231;50.746;4.272;2024-03-23T16:21:42;12.10;99.90
22130;DHT22;11231;50.746;4.272;2024-03-23T16:24:07;12.00;99.90
22130;DHT22;11231;50.746;4.272;2024-03-23T16:26:34;11.90;99.90
22130;DHT22;11231;50.746;4.272;2024-03-23T16:28:59;11.80;99.90
22130;DHT22;11231;50.746;4.272;2024-03-23T16:31:25;11.70;99.90
22130;DHT22;11231;50.746;4.272;2024-03-23T16:33:51;11.90;99.90